sensor_id;sensor_type;location;lat;lon;timestamp;P1;durP1;ratioP1;P2;durP2;ratioP2
56102;SDS011;41970;48.774;9.280;2023-02-11T00:00:54;32.47;;;20.27;;
56102;SDS011;41970;48.774;9.280;2023-02-11T00:03:20;29.47;;;20.10;;
56102;SDS011;41970;48.774;9.280;2023-02-11T00:05:55;33.17;;;21.90;;
56102;SDS011;41970;48.774;9.280;2023-02-11T00:08:24;31.40;;;20.92;;
56102;SDS011;41970;48.774;9.280;2023-02-11T00:10:53;30.25;;;18.02;;
56102;SDS011;41970;48.774;9.280;2023-02-11T00:13:20;30.92;;;18.40;;
56102;SDS011;41970;48.774;9.280;2023-02-11T00:15:47;31.55;;;19.58;;
56102;SDS011;41970;48.774;9.280;2023-02-11T00:18:13;32.05;;;19.73;;
56102;SDS011;41970;48.774;9.280;2023-02-11T00:20:39;35.63;;;19.10;;
56102;SDS011;41970;48.774;9.280;2023-02-11T00:23:04;30.33;;;18.40;;
56102;SDS011;41970;48.774;9.280;2023-02-11T00:25:30;32.10;;;19.03;;
56102;SDS011;41970;48.774;9.280;2023-02-11T00:27:56;36.90;;;20.73;;
56102;SDS011;41970;48.774;9.280;2023-02-11T00:30:23;36.67;;;20.08;;
56102;SDS011;41970;48.774;9.280;2023-02-11T00:32:48;29.23;;;19.43;;
56102;SDS011;41970;48.774;9.280;2023-02-11T00:35:14;34.13;;;19.77;;
56102;SDS011;41970;48.774;9.280;2023-02-11T00:37:40;31.50;;;17.73;;
56102;SDS011;41970;48.774;9.280;2023-02-11T00:40:06;30.87;;;18.03;;
56102;SDS011;41970;48.774;9.280;2023-02-11T00:42:32;30.55;;;20.73;;
56102;SDS011;41970;48.774;9.280;2023-02-11T00:45:01;26.45;;;18.63;;
56102;SDS011;41970;48.774;9.280;2023-02-11T00:47:28;32.13;;;20.30;;
56102;SDS011;41970;48.774;9.280;2023-02-11T00:49:53;29.33;;;18.40;;
56102;SDS011;41970;48.774;9.280;2023-02-11T00:52:19;34.90;;;19.57;;
56102;SDS011;41970;48.774;9.280;2023-02-11T00:54:45;29.37;;;18.00;;
56102;SDS011;41970;48.774;9.280;2023-02-11T00:57:11;29.97;;;18.57;;
56102;SDS011;41970;48.774;9.280;2023-02-11T00:59:36;28.57;;;18.20;;
56102;SDS011;41970;48.774;9.280;2023-02-11T01:02:02;28.37;;;17.90;;
56102;SDS011;41970;48.774;9.280;2023-02-11T01:04:28;30.13;;;18.33;;
56102;SDS011;41970;48.774;9.280;2023-02-11T01:06:54;36.80;;;20.38;;
56102;SDS011;41970;48.774;9.280;2023-02-11T01:09:20;30.47;;;19.60;;
56102;SDS011;41970;48.774;9.280;2023-02-11T01:11:46;29.47;;;17.60;;
56102;SDS011;41970;48.774;9.280;2023-02-11T01:14:12;30.17;;;17.92;;
56102;SDS011;41970;48.774;9.280;2023-02-11T01:16:38;30.37;;;18.93;;
56102;SDS011;41970;48.774;9.280;2023-02-11T01:19:04;26.63;;;17.25;;
56102;SDS011;41970;48.774;9.280;2023-02-11T01:21:30;29.10;;;19.13;;
56102;SDS011;41970;48.774;9.280;2023-02-11T01:23:56;31.67;;;19.60;;
56102;SDS011;41970;48.774;9.280;2023-02-11T01:26:21;29.40;;;19.50;;
56102;SDS011;41970;48.774;9.280;2023-02-11T01:28:47;29.53;;;18.23;;
56102;SDS011;41970;48.774;9.280;2023-02-11T01:31:13;32.10;;;19.73;;
56102;SDS011;41970;48.774;9.280;2023-02-11T01:33:39;34.77;;;20.37;;
56102;SDS011;41970;48.774;9.280;2023-02-11T01:36:05;28.90;;;18.47;;
56102;SDS011;41970;48.774;9.280;2023-02-11T01:38:32;34.53;;;19.80;;
56102;SDS011;41970;48.774;9.280;2023-02-11T01:41:00;31.95;;;20.23;;
56102;SDS011;41970;48.774;9.280;2023-02-11T01:43:30;34.45;;;19.48;;
56102;SDS011;41970;48.774;9.280;2023-02-11T01:48:43;36.67;;;21.50;;
56102;SDS011;41970;48.774;9.280;2023-02-11T01:51:12;33.25;;;19.67;;
56102;SDS011;41970;48.774;9.280;2023-02-11T01:53:45;29.95;;;19.42;;
56102;SDS011;41970;48.774;9.280;2023-02-11T01:56:32;26.80;;;18.42;;
56102;SDS011;41970;48.774;9.280;2023-02-11T01:59:23;36.63;;;17.75;;
56102;SDS011;41970;48.774;9.280;2023-02-11T02:01:58;30.73;;;19.90;;
56102;SDS011;41970;48.774;9.280;2023-02-11T02:04:32;32.25;;;20.25;;
56102;SDS011;41970;48.774;9.280;2023-02-11T02:07:11;26.58;;;18.15;;
56102;SDS011;41970;48.774;9.280;2023-02-11T02:09:45;31.55;;;17.23;;
56102;SDS011;41970;48.774;9.280;2023-02-11T02:12:15;28.88;;;19.85;;
56102;SDS011;41970;48.774;9.280;2023-02-11T02:14:41;27.23;;;19.30;;
56102;SDS011;41970;48.774;9.280;2023-02-11T02:17:14;31.60;;;17.90;;
56102;SDS011;41970;48.774;9.280;2023-02-11T02:34:05;30.13;;;18.95;;
56102;SDS011;41970;48.774;9.280;2023-02-11T02:36:50;29.00;;;18.77;;
56102;SDS011;41970;48.774;9.280;2023-02-11T02:39:25;29.52;;;20.02;;
56102;SDS011;41970;48.774;9.280;2023-02-11T02:41:55;31.45;;;18.58;;
56102;SDS011;41970;48.774;9.280;2023-02-11T02:44:21;38.58;;;19.75;;
56102;SDS011;41970;48.774;9.280;2023-02-11T02:46:47;30.58;;;19.73;;
56102;SDS011;41970;48.774;9.280;2023-02-11T02:49:14;32.43;;;20.57;;
56102;SDS011;41970;48.774;9.280;2023-02-11T03:02:28;29.65;;;19.10;;
56102;SDS011;41970;48.774;9.280;2023-02-11T03:04:57;27.88;;;17.17;;
56102;SDS011;41970;48.774;9.280;2023-02-11T03:07:50;31.60;;;18.45;;
56102;SDS011;41970;48.774;9.280;2023-02-11T03:10:21;29.42;;;19.23;;
56102;SDS011;41970;48.774;9.280;2023-02-11T03:12:54;31.52;;;19.50;;
56102;SDS011;41970;48.774;9.280;2023-02-11T03:15:21;33.35;;;20.00;;
56102;SDS011;41970;48.774;9.280;2023-02-11T03:17:50;32.15;;;19.63;;
56102;SDS011;41970;48.774;9.280;2023-02-11T03:20:18;31.42;;;18.73;;
56102;SDS011;41970;48.774;9.280;2023-02-11T03:25:11;30.97;;;17.77;;
56102;SDS011;41970;48.774;9.280;2023-02-11T03:27:39;35.05;;;20.15;;
56102;SDS011;41970;48.774;9.280;2023-02-11T03:30:27;32.00;;;18.38;;
56102;SDS011;41970;48.774;9.280;2023-02-11T03:33:04;31.70;;;20.30;;
56102;SDS011;41970;48.774;9.280;2023-02-11T03:35:36;30.55;;;19.50;;
56102;SDS011;41970;48.774;9.280;2023-02-11T03:38:06;27.55;;;18.38;;
56102;SDS011;41970;48.774;9.280;2023-02-11T03:40:42;27.52;;;18.70;;
56102;SDS011;41970;48.774;9.280;2023-02-11T03:43:25;27.15;;;19.23;;
56102;SDS011;41970;48.774;9.280;2023-02-11T03:45:56;33.65;;;20.90;;
56102;SDS011;41970;48.774;9.280;2023-02-11T03:50:54;29.63;;;19.27;;
56102;SDS011;41970;48.774;9.280;2023-02-11T03:53:22;29.52;;;21.10;;
56102;SDS011;41970;48.774;9.280;2023-02-11T03:55:49;31.23;;;22.17;;
56102;SDS011;41970;48.774;9.280;2023-02-11T03:58:16;30.30;;;19.75;;
56102;SDS011;41970;48.774;9.280;2023-02-11T04:00:43;30.77;;;19.13;;
56102;SDS011;41970;48.774;9.280;2023-02-11T04:03:09;28.80;;;19.05;;
56102;SDS011;41970;48.774;9.280;2023-02-11T04:05:36;33.92;;;20.23;;
56102;SDS011;41970;48.774;9.280;2023-02-11T04:08:02;32.58;;;20.38;;
56102;SDS011;41970;48.774;9.280;2023-02-11T04:10:28;33.73;;;20.00;;
56102;SDS011;41970;48.774;9.280;2023-02-11T04:12:54;32.20;;;20.90;;
56102;SDS011;41970;48.774;9.280;2023-02-11T04:15:20;29.80;;;18.83;;
56102;SDS011;41970;48.774;9.280;2023-02-11T04:17:45;36.90;;;23.10;;
56102;SDS011;41970;48.774;9.280;2023-02-11T04:20:11;34.33;;;21.93;;
56102;SDS011;41970;48.774;9.280;2023-02-11T04:22:37;29.43;;;20.90;;
56102;SDS011;41970;48.774;9.280;2023-02-11T04:25:03;35.17;;;21.63;;
56102;SDS011;41970;48.774;9.280;2023-02-11T04:27:30;30.38;;;20.35;;
56102;SDS011;41970;48.774;9.280;2023-02-11T04:29:56;31.60;;;20.73;;
56102;SDS011;41970;48.774;9.280;2023-02-11T04:32:21;31.87;;;22.07;;
56102;SDS011;41970;48.774;9.280;2023-02-11T04:34:47;35.40;;;21.83;;
56102;SDS011;41970;48.774;9.280;2023-02-11T04:37:13;38.00;;;22.17;;
56102;SDS011;41970;48.774;9.280;2023-02-11T04:39:39;34.38;;;21.90;;
56102;SDS011;41970;48.774;9.280;2023-02-11T04:42:05;32.27;;;21.37;;
56102;SDS011;41970;48.774;9.280;2023-02-11T04:44:31;35.00;;;23.10;;
56102;SDS011;41970;48.774;9.280;2023-02-11T04:46:57;35.73;;;23.70;;
56102;SDS011;41970;48.774;9.280;2023-02-11T04:49:23;33.97;;;21.90;;
56102;SDS011;41970;48.774;9.280;2023-02-11T04:51:48;29.80;;;22.07;;
56102;SDS011;41970;48.774;9.280;2023-02-11T04:54:14;32.47;;;20.87;;
56102;SDS011;41970;48.774;9.280;2023-02-11T04:56:40;30.55;;;21.38;;
56102;SDS011;41970;48.774;9.280;2023-02-11T04:59:06;37.70;;;20.70;;
56102;SDS011;41970;48.774;9.280;2023-02-11T05:01:32;31.40;;;18.20;;
56102;SDS011;41970;48.774;9.280;2023-02-11T05:03:58;34.85;;;21.75;;
56102;SDS011;41970;48.774;9.280;2023-02-11T05:06:24;28.23;;;18.23;;
56102;SDS011;41970;48.774;9.280;2023-02-11T05:08:49;23.00;;;16.70;;
56102;SDS011;41970;48.774;9.280;2023-02-11T05:11:17;29.47;;;20.30;;
56102;SDS011;41970;48.774;9.280;2023-02-11T05:13:45;26.98;;;19.52;;
56102;SDS011;41970;48.774;9.280;2023-02-11T05:16:11;26.73;;;18.15;;
56102;SDS011;41970;48.774;9.280;2023-02-11T05:18:38;29.58;;;20.38;;
56102;SDS011;41970;48.774;9.280;2023-02-11T05:21:08;25.58;;;18.83;;
56102;SDS011;41970;48.774;9.280;2023-02-11T05:23:44;29.05;;;20.50;;
56102;SDS011;41970;48.774;9.280;2023-02-11T05:26:10;23.15;;;18.23;;
56102;SDS011;41970;48.774;9.280;2023-02-11T05:28:36;30.48;;;20.08;;
56102;SDS011;41970;48.774;9.280;2023-02-11T05:31:04;24.40;;;17.83;;
56102;SDS011;41970;48.774;9.280;2023-02-11T05:33:30;20.88;;;15.75;;
56102;SDS011;41970;48.774;9.280;2023-02-11T05:35:57;24.53;;;18.40;;
56102;SDS011;41970;48.774;9.280;2023-02-11T05:38:24;30.98;;;19.77;;
56102;SDS011;41970;48.774;9.280;2023-02-11T05:40:50;31.73;;;20.80;;
56102;SDS011;41970;48.774;9.280;2023-02-11T05:43:16;30.93;;;20.03;;
56102;SDS011;41970;48.774;9.280;2023-02-11T05:45:41;28.43;;;17.90;;
56102;SDS011;41970;48.774;9.280;2023-02-11T05:48:07;30.47;;;20.40;;
56102;SDS011;41970;48.774;9.280;2023-02-11T05:50:33;29.73;;;19.70;;
56102;SDS011;41970;48.774;9.280;2023-02-11T05:52:58;23.53;;;16.70;;
56102;SDS011;41970;48.774;9.280;2023-02-11T05:55:24;27.10;;;20.27;;
56102;SDS011;41970;48.774;9.280;2023-02-11T05:57:50;26.07;;;19.93;;
56102;SDS011;41970;48.774;9.280;2023-02-11T06:00:16;27.20;;;20.03;;
56102;SDS011;41970;48.774;9.280;2023-02-11T06:02:42;31.42;;;20.42;;
56102;SDS011;41970;48.774;9.280;2023-02-11T06:05:08;30.17;;;20.17;;
56102;SDS011;41970;48.774;9.280;2023-02-11T06:07:34;28.30;;;19.77;;
56102;SDS011;41970;48.774;9.280;2023-02-11T06:09:59;29.67;;;20.60;;
56102;SDS011;41970;48.774;9.280;2023-02-11T06:12:25;29.00;;;19.30;;
56102;SDS011;41970;48.774;9.280;2023-02-11T06:14:51;26.57;;;19.93;;
56102;SDS011;41970;48.774;9.280;2023-02-11T06:17:17;32.17;;;20.60;;
56102;SDS011;41970;48.774;9.280;2023-02-11T06:19:43;29.40;;;20.63;;
56102;SDS011;41970;48.774;9.280;2023-02-11T06:22:09;30.37;;;21.57;;
56102;SDS011;41970;48.774;9.280;2023-02-11T06:24:35;31.10;;;21.92;;
56102;SDS011;41970;48.774;9.280;2023-02-11T06:27:02;36.58;;;21.38;;
56102;SDS011;41970;48.774;9.280;2023-02-11T06:29:28;28.98;;;20.08;;
56102;SDS011;41970;48.774;9.280;2023-02-11T06:31:54;24.70;;;18.87;;
56102;SDS011;41970;48.774;9.280;2023-02-11T06:34:20;29.27;;;18.70;;
56102;SDS011;41970;48.774;9.280;2023-02-11T06:36:46;28.03;;;18.00;;
56102;SDS011;41970;48.774;9.280;2023-02-11T06:39:12;30.33;;;18.87;;
56102;SDS011;41970;48.774;9.280;2023-02-11T06:41:37;30.50;;;19.38;;
56102;SDS011;41970;48.774;9.280;2023-02-11T06:44:03;29.17;;;19.67;;
56102;SDS011;41970;48.774;9.280;2023-02-11T06:46:29;25.27;;;18.70;;
56102;SDS011;41970;48.774;9.280;2023-02-11T06:48:55;26.03;;;18.67;;
56102;SDS011;41970;48.774;9.280;2023-02-11T06:51:21;28.57;;;19.70;;
56102;SDS011;41970;48.774;9.280;2023-02-11T06:53:47;26.30;;;17.10;;
56102;SDS011;41970;48.774;9.280;2023-02-11T06:56:14;26.70;;;19.00;;
56102;SDS011;41970;48.774;9.280;2023-02-11T06:58:42;22.20;;;17.63;;
56102;SDS011;41970;48.774;9.280;2023-02-11T07:01:09;26.95;;;17.20;;
56102;SDS011;41970;48.774;9.280;2023-02-11T07:03:37;29.63;;;18.05;;
56102;SDS011;41970;48.774;9.280;2023-02-11T07:06:07;26.10;;;18.50;;
56102;SDS011;41970;48.774;9.280;2023-02-11T07:08:35;28.13;;;18.58;;
56102;SDS011;41970;48.774;9.280;2023-02-11T07:11:09;21.00;;;15.40;;
56102;SDS011;41970;48.774;9.280;2023-02-11T07:13:35;24.75;;;17.23;;
56102;SDS011;41970;48.774;9.280;2023-02-11T07:16:05;25.58;;;17.67;;
56102;SDS011;41970;48.774;9.280;2023-02-11T07:18:31;22.75;;;16.27;;
56102;SDS011;41970;48.774;9.280;2023-02-11T07:20:57;22.00;;;15.93;;
56102;SDS011;41970;48.774;9.280;2023-02-11T07:23:23;25.20;;;16.27;;
56102;SDS011;41970;48.774;9.280;2023-02-11T07:25:49;24.93;;;18.23;;
56102;SDS011;41970;48.774;9.280;2023-02-11T07:28:14;27.20;;;17.77;;
56102;SDS011;41970;48.774;9.280;2023-02-11T07:30:40;27.43;;;15.80;;
56102;SDS011;41970;48.774;9.280;2023-02-11T07:33:06;25.20;;;18.90;;
56102;SDS011;41970;48.774;9.280;2023-02-11T07:35:32;27.47;;;20.07;;
56102;SDS011;41970;48.774;9.280;2023-02-11T07:37:57;23.27;;;15.40;;
56102;SDS011;41970;48.774;9.280;2023-02-11T07:40:23;25.00;;;18.13;;
56102;SDS011;41970;48.774;9.280;2023-02-11T07:42:49;20.90;;;16.40;;
56102;SDS011;41970;48.774;9.280;2023-02-11T07:45:15;25.57;;;16.90;;
56102;SDS011;41970;48.774;9.280;2023-02-11T07:47:41;25.95;;;19.45;;
56102;SDS011;41970;48.774;9.280;2023-02-11T07:50:07;25.30;;;16.80;;
56102;SDS011;41970;48.774;9.280;2023-02-11T07:52:34;25.52;;;18.17;;
56102;SDS011;41970;48.774;9.280;2023-02-11T07:54:59;26.03;;;16.77;;
56102;SDS011;41970;48.774;9.280;2023-02-11T07:57:25;24.20;;;17.20;;
56102;SDS011;41970;48.774;9.280;2023-02-11T07:59:52;20.90;;;16.70;;
56102;SDS011;41970;48.774;9.280;2023-02-11T08:02:18;21.88;;;15.20;;
56102;SDS011;41970;48.774;9.280;2023-02-11T08:04:46;22.67;;;18.30;;
56102;SDS011;41970;48.774;9.280;2023-02-11T08:07:16;23.15;;;16.67;;
56102;SDS011;41970;48.774;9.280;2023-02-11T08:09:42;23.67;;;16.67;;
56102;SDS011;41970;48.774;9.280;2023-02-11T08:12:08;29.73;;;20.00;;
56102;SDS011;41970;48.774;9.280;2023-02-11T08:14:33;34.10;;;18.80;;
56102;SDS011;41970;48.774;9.280;2023-02-11T08:16:59;23.80;;;16.63;;
56102;SDS011;41970;48.774;9.280;2023-02-11T08:19:25;25.07;;;16.80;;
56102;SDS011;41970;48.774;9.280;2023-02-11T08:21:53;20.98;;;14.65;;
56102;SDS011;41970;48.774;9.280;2023-02-11T08:24:20;20.90;;;15.82;;
56102;SDS011;41970;48.774;9.280;2023-02-11T08:26:46;22.70;;;16.50;;
56102;SDS011;41970;48.774;9.280;2023-02-11T08:29:13;27.27;;;19.55;;
56102;SDS011;41970;48.774;9.280;2023-02-11T08:31:41;26.58;;;19.55;;
56102;SDS011;41970;48.774;9.280;2023-02-11T08:34:10;29.55;;;19.35;;
56102;SDS011;41970;48.774;9.280;2023-02-11T08:36:38;22.05;;;17.55;;
56102;SDS011;41970;48.774;9.280;2023-02-11T08:39:06;26.65;;;20.13;;
56102;SDS011;41970;48.774;9.280;2023-02-11T08:41:36;24.80;;;17.45;;
56102;SDS011;41970;48.774;9.280;2023-02-11T08:44:02;21.30;;;16.40;;
56102;SDS011;41970;48.774;9.280;2023-02-11T08:46:28;23.15;;;15.80;;
56102;SDS011;41970;48.774;9.280;2023-02-11T08:48:54;26.42;;;17.33;;
56102;SDS011;41970;48.774;9.280;2023-02-11T08:51:21;30.40;;;19.03;;
56102;SDS011;41970;48.774;9.280;2023-02-11T08:53:48;21.90;;;17.90;;
56102;SDS011;41970;48.774;9.280;2023-02-11T08:56:16;21.53;;;17.00;;
56102;SDS011;41970;48.774;9.280;2023-02-11T08:58:43;19.83;;;14.83;;
56102;SDS011;41970;48.774;9.280;2023-02-11T09:01:14;28.77;;;16.80;;
56102;SDS011;41970;48.774;9.280;2023-02-11T09:03:41;21.00;;;15.43;;
56102;SDS011;41970;48.774;9.280;2023-02-11T09:06:08;21.60;;;17.60;;
56102;SDS011;41970;48.774;9.280;2023-02-11T09:08:36;23.53;;;17.23;;
56102;SDS011;41970;48.774;9.280;2023-02-11T09:11:03;22.53;;;17.77;;
56102;SDS011;41970;48.774;9.280;2023-02-11T09:13:30;22.60;;;16.77;;
56102;SDS011;41970;48.774;9.280;2023-02-11T09:15:57;24.70;;;18.10;;
56102;SDS011;41970;48.774;9.280;2023-02-11T09:18:23;25.03;;;18.93;;
56102;SDS011;41970;48.774;9.280;2023-02-11T09:20:49;24.40;;;18.83;;
56102;SDS011;41970;48.774;9.280;2023-02-11T09:23:15;23.93;;;17.80;;
56102;SDS011;41970;48.774;9.280;2023-02-11T09:25:41;20.97;;;16.40;;
56102;SDS011;41970;48.774;9.280;2023-02-11T09:28:07;21.67;;;17.83;;
56102;SDS011;41970;48.774;9.280;2023-02-11T09:30:37;21.80;;;18.90;;
56102;SDS011;41970;48.774;9.280;2023-02-11T09:33:03;24.20;;;20.00;;
56102;SDS011;41970;48.774;9.280;2023-02-11T09:35:29;21.30;;;17.67;;
56102;SDS011;41970;48.774;9.280;2023-02-11T09:37:54;22.97;;;18.40;;
56102;SDS011;41970;48.774;9.280;2023-02-11T09:40:20;21.07;;;18.70;;
56102;SDS011;41970;48.774;9.280;2023-02-11T09:45:34;24.13;;;18.57;;
56102;SDS011;41970;48.774;9.280;2023-02-11T09:48:01;22.97;;;18.17;;
56102;SDS011;41970;48.774;9.280;2023-02-11T09:50:35;23.87;;;20.07;;
56102;SDS011;41970;48.774;9.280;2023-02-11T09:53:10;22.20;;;19.80;;
56102;SDS011;41970;48.774;9.280;2023-02-11T09:55:40;24.17;;;18.50;;
56102;SDS011;41970;48.774;9.280;2023-02-11T09:58:12;25.13;;;16.80;;
56102;SDS011;41970;48.774;9.280;2023-02-11T10:00:46;21.03;;;17.43;;
56102;SDS011;41970;48.774;9.280;2023-02-11T10:14:48;19.37;;;16.73;;
56102;SDS011;41970;48.774;9.280;2023-02-11T10:22:57;23.50;;;19.07;;
56102;SDS011;41970;48.774;9.280;2023-02-11T10:25:39;21.57;;;17.23;;
56102;SDS011;41970;48.774;9.280;2023-02-11T10:28:19;22.93;;;18.10;;
56102;SDS011;41970;48.774;9.280;2023-02-11T10:30:58;18.40;;;16.43;;
56102;SDS011;41970;48.774;9.280;2023-02-11T10:33:29;24.70;;;17.63;;
56102;SDS011;41970;48.774;9.280;2023-02-11T10:36:16;21.30;;;15.77;;
56102;SDS011;41970;48.774;9.280;2023-02-11T10:38:42;22.70;;;16.87;;
56102;SDS011;41970;48.774;9.280;2023-02-11T10:41:12;22.60;;;17.27;;
56102;SDS011;41970;48.774;9.280;2023-02-11T10:43:44;23.43;;;18.80;;
56102;SDS011;41970;48.774;9.280;2023-02-11T10:46:13;20.40;;;16.17;;
56102;SDS011;41970;48.774;9.280;2023-02-11T10:48:47;20.40;;;16.57;;
56102;SDS011;41970;48.774;9.280;2023-02-11T10:51:22;22.17;;;15.37;;
56102;SDS011;41970;48.774;9.280;2023-02-11T10:56:39;20.87;;;13.87;;
56102;SDS011;41970;48.774;9.280;2023-02-11T11:02:01;20.40;;;15.40;;
56102;SDS011;41970;48.774;9.280;2023-02-11T11:07:08;19.93;;;16.00;;
56102;SDS011;41970;48.774;9.280;2023-02-11T11:09:46;20.67;;;15.77;;
56102;SDS011;41970;48.774;9.280;2023-02-11T11:14:58;19.63;;;13.27;;
56102;SDS011;41970;48.774;9.280;2023-02-11T11:17:26;16.80;;;13.50;;
56102;SDS011;41970;48.774;9.280;2023-02-11T11:20:17;16.50;;;13.47;;
56102;SDS011;41970;48.774;9.280;2023-02-11T11:22:50;19.77;;;14.63;;
56102;SDS011;41970;48.774;9.280;2023-02-11T11:25:30;21.37;;;12.57;;
56102;SDS011;41970;48.774;9.280;2023-02-11T11:27:57;14.77;;;13.17;;
56102;SDS011;41970;48.774;9.280;2023-02-11T11:30:38;21.27;;;15.53;;
56102;SDS011;41970;48.774;9.280;2023-02-11T11:33:14;16.73;;;13.70;;
56102;SDS011;41970;48.774;9.280;2023-02-11T11:36:07;18.43;;;13.30;;
56102;SDS011;41970;48.774;9.280;2023-02-11T11:38:36;21.10;;;15.20;;
56102;SDS011;41970;48.774;9.280;2023-02-11T11:41:15;19.63;;;14.60;;
56102;SDS011;41970;48.774;9.280;2023-02-11T11:46:31;19.10;;;15.10;;
56102;SDS011;41970;48.774;9.280;2023-02-11T11:51:57;15.60;;;12.90;;
56102;SDS011;41970;48.774;9.280;2023-02-11T11:54:27;17.67;;;13.37;;
56102;SDS011;41970;48.774;9.280;2023-02-11T11:57:17;20.60;;;15.47;;
56102;SDS011;41970;48.774;9.280;2023-02-11T11:59:46;40.43;;;31.03;;
56102;SDS011;41970;48.774;9.280;2023-02-11T12:07:41;21.77;;;14.90;;
56102;SDS011;41970;48.774;9.280;2023-02-11T12:43:41;13.80;;;9.83;;
56102;SDS011;41970;48.774;9.280;2023-02-11T12:46:13;11.53;;;9.10;;
56102;SDS011;41970;48.774;9.280;2023-02-11T12:56:43;11.57;;;8.57;;
56102;SDS011;41970;48.774;9.280;2023-02-11T12:59:27;9.50;;;8.00;;
56102;SDS011;41970;48.774;9.280;2023-02-11T13:01:57;8.27;;;7.33;;
56102;SDS011;41970;48.774;9.280;2023-02-11T13:04:28;10.80;;;7.43;;
56102;SDS011;41970;48.774;9.280;2023-02-11T13:07:01;12.23;;;7.73;;
56102;SDS011;41970;48.774;9.280;2023-02-11T13:09:34;11.10;;;7.27;;
56102;SDS011;41970;48.774;9.280;2023-02-11T13:12:06;10.37;;;7.90;;
56102;SDS011;41970;48.774;9.280;2023-02-11T13:14:55;11.87;;;8.50;;
56102;SDS011;41970;48.774;9.280;2023-02-11T13:17:48;9.23;;;7.53;;
56102;SDS011;41970;48.774;9.280;2023-02-11T13:20:26;10.37;;;7.40;;
56102;SDS011;41970;48.774;9.280;2023-02-11T13:26:20;9.77;;;8.07;;
56102;SDS011;41970;48.774;9.280;2023-02-11T13:29:07;10.97;;;8.40;;
56102;SDS011;41970;48.774;9.280;2023-02-11T13:32:04;11.10;;;8.23;;
56102;SDS011;41970;48.774;9.280;2023-02-11T13:40:21;12.00;;;8.90;;
56102;SDS011;41970;48.774;9.280;2023-02-11T13:45:46;15.80;;;10.10;;
56102;SDS011;41970;48.774;9.280;2023-02-11T13:48:14;15.33;;;10.47;;
56102;SDS011;41970;48.774;9.280;2023-02-11T13:50:51;12.80;;;10.57;;
56102;SDS011;41970;48.774;9.280;2023-02-11T13:53:20;15.37;;;11.37;;
56102;SDS011;41970;48.774;9.280;2023-02-11T13:55:47;13.47;;;10.87;;
56102;SDS011;41970;48.774;9.280;2023-02-11T13:58:18;14.40;;;10.73;;
56102;SDS011;41970;48.774;9.280;2023-02-11T14:01:05;16.57;;;11.57;;
56102;SDS011;41970;48.774;9.280;2023-02-11T14:03:32;15.03;;;11.40;;
56102;SDS011;41970;48.774;9.280;2023-02-11T14:14:24;15.67;;;11.00;;
56102;SDS011;41970;48.774;9.280;2023-02-11T14:19:32;14.47;;;11.73;;
56102;SDS011;41970;48.774;9.280;2023-02-11T14:22:03;14.20;;;10.60;;
56102;SDS011;41970;48.774;9.280;2023-02-11T14:29:44;16.53;;;12.20;;
56102;SDS011;41970;48.774;9.280;2023-02-11T14:35:19;17.50;;;12.73;;
56102;SDS011;41970;48.774;9.280;2023-02-11T14:42:55;17.80;;;13.87;;
56102;SDS011;41970;48.774;9.280;2023-02-11T14:45:36;16.80;;;13.43;;
56102;SDS011;41970;48.774;9.280;2023-02-11T14:48:04;20.53;;;14.33;;
56102;SDS011;41970;48.774;9.280;2023-02-11T14:50:45;15.90;;;12.63;;
56102;SDS011;41970;48.774;9.280;2023-02-11T14:53:16;17.03;;;13.23;;
56102;SDS011;41970;48.774;9.280;2023-02-11T14:55:46;19.40;;;13.30;;
56102;SDS011;41970;48.774;9.280;2023-02-11T15:06:25;15.90;;;10.43;;
56102;SDS011;41970;48.774;9.280;2023-02-11T15:09:04;15.77;;;10.70;;
56102;SDS011;41970;48.774;9.280;2023-02-11T15:11:52;13.47;;;10.00;;
56102;SDS011;41970;48.774;9.280;2023-02-11T15:14:32;20.17;;;12.00;;
56102;SDS011;41970;48.774;9.280;2023-02-11T15:17:02;16.07;;;11.67;;
56102;SDS011;41970;48.774;9.280;2023-02-11T15:19:34;17.97;;;12.90;;
56102;SDS011;41970;48.774;9.280;2023-02-11T15:22:04;15.93;;;11.60;;
56102;SDS011;41970;48.774;9.280;2023-02-11T15:24:42;16.47;;;11.27;;
56102;SDS011;41970;48.774;9.280;2023-02-11T15:27:09;16.73;;;12.70;;
56102;SDS011;41970;48.774;9.280;2023-02-11T15:29:41;20.30;;;12.87;;
56102;SDS011;41970;48.774;9.280;2023-02-11T15:34:39;15.53;;;11.20;;
56102;SDS011;41970;48.774;9.280;2023-02-11T15:37:05;13.00;;;11.40;;
56102;SDS011;41970;48.774;9.280;2023-02-11T15:39:33;14.80;;;11.90;;
56102;SDS011;41970;48.774;9.280;2023-02-11T15:42:21;13.30;;;11.73;;
56102;SDS011;41970;48.774;9.280;2023-02-11T15:44:48;17.00;;;11.47;;
56102;SDS011;41970;48.774;9.280;2023-02-11T15:47:16;15.10;;;9.90;;
56102;SDS011;41970;48.774;9.280;2023-02-11T15:49:45;15.63;;;11.77;;
56102;SDS011;41970;48.774;9.280;2023-02-11T15:52:21;16.77;;;11.10;;
56102;SDS011;41970;48.774;9.280;2023-02-11T15:54:50;13.37;;;9.90;;
56102;SDS011;41970;48.774;9.280;2023-02-11T15:57:18;15.60;;;12.23;;
56102;SDS011;41970;48.774;9.280;2023-02-11T15:59:46;17.50;;;12.30;;
56102;SDS011;41970;48.774;9.280;2023-02-11T16:02:19;18.13;;;11.70;;
56102;SDS011;41970;48.774;9.280;2023-02-11T16:04:56;13.67;;;11.03;;
56102;SDS011;41970;48.774;9.280;2023-02-11T16:20:56;13.40;;;11.77;;
56102;SDS011;41970;48.774;9.280;2023-02-11T16:23:27;17.40;;;12.63;;
56102;SDS011;41970;48.774;9.280;2023-02-11T16:26:00;15.83;;;11.80;;
56102;SDS011;41970;48.774;9.280;2023-02-11T16:28:45;15.13;;;12.53;;
56102;SDS011;41970;48.774;9.280;2023-02-11T16:31:11;13.67;;;12.03;;
56102;SDS011;41970;48.774;9.280;2023-02-11T16:33:37;18.30;;;13.37;;
56102;SDS011;41970;48.774;9.280;2023-02-11T16:36:10;18.27;;;14.20;;
56102;SDS011;41970;48.774;9.280;2023-02-11T16:38:38;16.20;;;13.13;;
56102;SDS011;41970;48.774;9.280;2023-02-11T16:41:04;20.57;;;14.97;;
56102;SDS011;41970;48.774;9.280;2023-02-11T16:43:30;21.33;;;13.83;;
56102;SDS011;41970;48.774;9.280;2023-02-11T16:45:56;18.73;;;13.90;;
56102;SDS011;41970;48.774;9.280;2023-02-11T16:48:22;21.30;;;13.87;;
56102;SDS011;41970;48.774;9.280;2023-02-11T16:50:49;14.17;;;12.33;;
56102;SDS011;41970;48.774;9.280;2023-02-11T16:53:17;22.47;;;15.90;;
56102;SDS011;41970;48.774;9.280;2023-02-11T16:55:46;18.60;;;14.17;;
56102;SDS011;41970;48.774;9.280;2023-02-11T16:58:12;19.23;;;14.37;;
56102;SDS011;41970;48.774;9.280;2023-02-11T17:00:38;16.80;;;14.00;;
56102;SDS011;41970;48.774;9.280;2023-02-11T17:03:05;18.23;;;14.87;;
56102;SDS011;41970;48.774;9.280;2023-02-11T17:05:32;20.63;;;13.73;;
56102;SDS011;41970;48.774;9.280;2023-02-11T17:07:58;19.03;;;15.00;;
56102;SDS011;41970;48.774;9.280;2023-02-11T17:10:25;19.00;;;14.80;;
56102;SDS011;41970;48.774;9.280;2023-02-11T17:12:51;17.47;;;14.33;;
56102;SDS011;41970;48.774;9.280;2023-02-11T17:15:17;17.13;;;14.10;;
56102;SDS011;41970;48.774;9.280;2023-02-11T17:17:43;19.40;;;15.37;;
56102;SDS011;41970;48.774;9.280;2023-02-11T17:20:10;20.33;;;15.47;;
56102;SDS011;41970;48.774;9.280;2023-02-11T17:22:37;21.30;;;15.53;;
56102;SDS011;41970;48.774;9.280;2023-02-11T17:25:03;21.77;;;15.97;;
56102;SDS011;41970;48.774;9.280;2023-02-11T17:27:28;18.20;;;14.23;;
56102;SDS011;41970;48.774;9.280;2023-02-11T17:29:54;20.97;;;16.20;;
56102;SDS011;41970;48.774;9.280;2023-02-11T17:32:20;20.77;;;17.27;;